Flight Track Log - Related Links

Times and Time Zones

All times are in EDT time to prevent confusion due to time zone crossing. See the AAL1624 flight status page for this flight to view local times or setup timezone preferences in your user account.

Time Position Orientation Groundspeed Altitude Reporting Facility
EDT Latitude Longitude Course Direction KTS MPH feet Rate Location/Type
Sat 11:14:41 PM 42.0000 -87.9500 254° West 180 207 1,800  Level Chicago TRACON
Sat 11:15:41 PM 42.0500 -88.0000 323° Northwest 250 288 3,600 2,324 Climbing Chicago TRACON
Sat 11:16:00 PM 41.9045 -88.1721 242° Southwest  Level FlightAware Approximate
Sat 11:17:00 PM 41.8842 -88.3122 255° West  Level FlightAware Approximate
Sat 11:18:00 PM 41.8413 -88.4436 255° West  Level FlightAware Approximate
Sat 11:18:05 PM 42.0828 -88.2008 282° West 295 339 9,700  Level Chicago Center
Sat 11:19:00 PM 41.8115 -88.5822 254° West  Level FlightAware Approximate
Sat 11:19:05 PM 42.0550 -88.3008 250° West 290 334 12,200  Level Chicago Center
Sat 11:20:06 PM 42.0203 -88.4214 249° West 347 399 13,900 2,182 Climbing Chicago Center
Sat 11:21:06 PM 41.9800 -88.5481 247° West 371 427 16,600 2,800 Climbing Chicago Center
Sat 11:22:06 PM 41.9322 -88.7094 248° West 389 448 19,500 2,529 Climbing Chicago Center
Sat 11:23:07 PM 41.8881 -88.8517 247° West 412 474 21,700 2,430 Climbing Chicago Center
Sat 11:24:07 PM 41.8417 -88.9978 247° West 427 491 24,400 2,529 Climbing Chicago Center
Sat 11:25:08 PM 41.7986 -89.1406 248° West 420 483 26,800 1,934 Climbing Chicago Center
Sat 11:26:08 PM 41.7536 -89.2872 248° West 427 491 28,300 1,636 Climbing Chicago Center
Sat 11:27:09 PM 41.7064 -89.4358 247° West 435 501 30,100 1,884 Climbing Chicago Center
Sat 11:28:09 PM 41.6614 -89.5822 248° West 441 507 32,100 1,736 Climbing Chicago Center
Sat 11:29:10 PM 41.6150 -89.7289 247° West 433 498 33,600 942 Climbing Chicago Center
Sat 11:30:10 PM 41.5669 -89.8794 247° West 441 507 34,000 200 Climbing Chicago Center
Sat 11:31:10 PM 41.5189 -90.0303 247° West 443 510 34,000  Level Chicago Center
Sat 11:32:11 PM 41.4719 -90.1767 247° West 435 501 34,000  Level Chicago Center
Sat 11:33:11 PM 41.4247 -90.3242 247° West 436 502 34,000  Level Chicago Center
Sat 11:34:12 PM 41.3753 -90.4728 246° West 440 506 34,000  Level Chicago Center
Sat 11:35:12 PM 41.3267 -90.6217 247° West 441 507 34,000  Level Chicago Center
Sat 11:36:13 PM 41.2539 -90.7517 233° Southwest 439 505 34,000  Level Chicago Center
Sat 11:37:13 PM 41.1781 -90.8811 232° Southwest 443 510 34,000  Level Chicago Center
Sat 11:38:14 PM 41.0875 -91.0344 232° Southwest 443 510 34,000  Level Chicago Center
Sat 11:39:14 PM 41.0111 -91.1625 232° Southwest 443 510 34,000  Level Chicago Center
Sat 11:40:14 PM 40.9353 -91.2900 232° Southwest 443 510 34,000  Level Chicago Center
Sat 11:41:15 PM 40.8697 -91.3972 231° Southwest 442 509 34,000  Level Chicago Center
Sat 11:42:15 PM 40.7781 -91.5489 231° Southwest 443 510 34,000  Level Chicago Center
Sat 11:43:16 PM 40.7014 -91.6758 231° Southwest 445 512 34,000  Level Chicago Center
Sat 11:44:16 PM 40.6236 -91.8017 231° Southwest 447 514 34,000  Level Chicago Center
Sat 11:45:10 PM 40.5614 -91.9025 231° Southwest 446 513 34,000  Level Kansas City Center
Sat 11:46:11 PM 40.4944 -92.0389 237° Southwest 448 516 34,000  Level Kansas City Center
Sat 11:47:11 PM 40.4317 -92.1781 239° Southwest 446 513 34,000 -300 Level Kansas City Center
Sat 11:48:11 PM 40.3683 -92.3161 239° Southwest 445 512 33,400 -1,289 Descending Kansas City Center
Sat 11:49:12 PM 40.3008 -92.4606 239° Southwest 441 507 31,400 -2,033 Descending Kansas City Center
Sat 11:50:12 PM 40.2292 -92.6136 239° Southwest 441 507 29,300 -1,983 Descending Kansas City Center
Sat 11:51:13 PM 40.1672 -92.7472 239° Southwest 447 514 27,400 -1,785 Descending Kansas City Center
Sat 11:52:13 PM 40.1064 -92.8772 239° Southwest 440 506 25,700 -1,850 Descending Kansas City Center
Sat 11:53:13 PM 40.0458 -93.0036 238° Southwest 430 495 23,700 -1,983 Descending Kansas City Center
Sat 11:54:14 PM 39.9869 -93.1311 239° Southwest 418 481 21,700 -1,736 Descending Kansas City Center
Sat 11:55:14 PM 39.9283 -93.2539 238° Southwest 406 467 20,200 -1,450 Descending Kansas City Center
Sat 11:56:14 PM 39.8697 -93.3764 238° Southwest 402 463 18,800 -1,388 Descending Kansas City Center
Sat 11:57:15 PM 39.8117 -93.4967 238° Southwest 398 458 17,400 -1,438 Descending Kansas City Center
Sat 11:58:15 PM 39.7558 -93.6142 238° Southwest 390 449 15,900 -1,600 Descending Kansas City Center
Sat 11:59:15 PM 39.6933 -93.7456 238° Southwest 372 428 14,200 -1,550 Descending Kansas City Center
Sun 12:00:15 AM 39.6456 -93.8456 238° Southwest 366 421 12,800 -1,686 Descending Kansas City Center
Sun 12:01:16 AM 39.5875 -93.9653 238° Southwest 352 405 10,800 -1,388 Descending Kansas City Center
Sun 12:02:16 AM 39.5397 -94.0633 238° Southwest 333 383 10,000 -950 Descending Kansas City Center
Sun 12:03:16 AM 39.4967 -94.1497 237° Southwest 299 344 8,900 -1,438 Descending Kansas City Center
Sun 12:04:17 AM 39.4497 -94.2458 238° Southwest 283 326 7,100 -1,438 Descending Kansas City Center
Sun 12:05:17 AM 39.4111 -94.3250 238° Southwest 274 315 6,000 -1,150 Descending Kansas City Center
Sun 12:06:17 AM 39.3736 -94.4017 238° Southwest 264 304 4,800 -893 Descending Kansas City Center
Sun 12:07:18 AM 39.3383 -94.4736 238° Southwest 246 283 4,200 -793 Descending Kansas City Center
Sun 12:08:18 AM 39.3025 -94.5453 237° Southwest 214 246 3,200 -900 Descending Kansas City Center
Sun 12:09:18 AM 39.2856 -94.6008 249° West 178 205 2,400 -800 Descending Kansas City Center

Login

Don't have an account? Register now (free) for customized features, flight alerts, and more!